createdAt,value
2023-03-24T00:01:06.962Z,67.65
2023-03-24T00:03:35.734Z,68.55
2023-03-24T00:06:05.818Z,68.61
2023-03-24T00:08:36.570Z,69.76
2023-03-24T00:11:07.569Z,69.33
2023-03-24T00:13:36.585Z,69.97
2023-03-24T00:16:05.034Z,69.89
2023-03-24T00:18:32.451Z,69.83
2023-03-24T00:21:00.887Z,70.08
2023-03-24T00:23:30.742Z,70.01
2023-03-24T00:26:03.161Z,70.12
2023-03-24T00:28:32.206Z,69.93
2023-03-24T00:30:59.814Z,69.96
2023-03-24T00:33:26.708Z,70.17
2023-03-24T00:35:53.715Z,69.77
2023-03-24T00:38:21.980Z,69.60
2023-03-24T00:40:49.392Z,70.15
2023-03-24T00:43:17.057Z,69.35
2023-03-24T00:45:43.907Z,69.36
2023-03-24T00:48:11.608Z,68.66
2023-03-24T00:50:38.788Z,68.06
2023-03-24T00:53:05.927Z,68.03
2023-03-24T00:55:34.191Z,67.90
2023-03-24T00:58:01.184Z,67.02
2023-03-24T01:00:28.283Z,67.03
2023-03-24T01:02:57.617Z,67.48
2023-03-24T01:05:28.493Z,66.41
2023-03-24T01:07:57.046Z,66.41
2023-03-24T01:10:25.787Z,66.69
2023-03-24T01:12:58.180Z,65.96
2023-03-24T01:15:28.309Z,65.81
2023-03-24T01:17:55.946Z,66.19
2023-03-24T01:20:24.715Z,66.19
2023-03-24T01:22:52.300Z,65.30
2023-03-24T01:25:22.523Z,65.78
2023-03-24T01:27:52.303Z,65.26
2023-03-24T01:30:24.665Z,66.32
2023-03-24T01:32:52.660Z,65.93
2023-03-24T01:35:20.205Z,66.48
2023-03-24T01:37:47.307Z,65.80
2023-03-24T01:40:19.932Z,65.88
2023-03-24T01:42:47.316Z,65.33
2023-03-24T01:45:54.481Z,65.18
2023-03-24T01:48:28.211Z,65.12
2023-03-24T01:51:00.904Z,65.40
2023-03-24T01:53:31.858Z,66.36
2023-03-24T01:56:02.345Z,66.16
2023-03-24T01:58:38.011Z,66.51
2023-03-24T02:01:19.916Z,67.57
2023-03-24T02:03:58.990Z,68.43
2023-03-24T02:06:27.371Z,68.79
2023-03-24T02:08:59.460Z,68.07
2023-03-24T02:11:31.608Z,68.50
2023-03-24T02:14:02.612Z,68.02
2023-03-24T02:16:59.732Z,66.34
2023-03-24T02:20:25.512Z,66.27
2023-03-24T02:23:48.958Z,65.92
2023-03-24T02:26:47.149Z,65.95
2023-03-24T02:30:23.205Z,67.57
2023-03-24T02:33:39.808Z,67.44
2023-03-24T02:36:44.032Z,68.30
2023-03-24T02:39:36.760Z,68.33
2023-03-24T02:42:15.976Z,68.64
2023-03-24T02:45:01.173Z,68.03
2023-03-24T02:47:45.620Z,68.05
2023-03-24T02:50:28.356Z,68.11
2023-03-24T02:53:11.047Z,67.83
2023-03-24T02:55:59.298Z,68.05
2023-03-24T02:58:36.602Z,69.06
2023-03-24T03:01:12.956Z,68.64
2023-03-24T03:04:13.582Z,69.41
2023-03-24T03:06:49.266Z,69.27
2023-03-24T03:09:21.302Z,69.94
2023-03-24T03:11:56.113Z,69.97
2023-03-24T03:14:30.453Z,69.63
2023-03-24T03:17:06.174Z,69.32
2023-03-24T03:19:39.698Z,68.58
2023-03-24T03:22:14.957Z,67.44
2023-03-24T03:24:47.644Z,66.88
2023-03-24T03:27:20.804Z,65.71
2023-03-24T03:29:57.393Z,64.91
2023-03-24T03:32:31.604Z,64.37
2023-03-24T03:35:09.719Z,64.58
2023-03-24T03:37:51.018Z,64.70
2023-03-24T03:40:25.267Z,64.52
2023-03-24T03:42:59.561Z,64.67
2023-03-24T03:45:27.014Z,64.94
2023-03-24T03:47:54.683Z,64.13
2023-03-24T03:50:21.915Z,64.09
2023-03-24T03:52:50.217Z,63.98
2023-03-24T03:55:17.655Z,63.92
2023-03-24T03:57:45.483Z,64.55
2023-03-24T04:00:22.655Z,64.56
2023-03-24T04:03:32.502Z,64.39
2023-03-24T04:06:24.437Z,63.96
2023-03-24T04:09:08.482Z,64.04
2023-03-24T04:12:09.283Z,63.84
2023-03-24T04:15:13.780Z,64.34
2023-03-24T04:18:10.334Z,64.03
2023-03-24T04:21:16.405Z,64.09
2023-03-24T04:23:56.448Z,64.23
2023-03-24T04:26:34.524Z,63.99
2023-03-24T04:29:16.058Z,63.31
2023-03-24T04:31:50.347Z,63.09
2023-03-24T04:34:25.533Z,63.46
2023-03-24T04:36:58.327Z,63.38
2023-03-24T04:40:10.693Z,63.57
2023-03-24T04:42:44.498Z,63.60
2023-03-24T04:45:13.752Z,63.50
2023-03-24T04:48:01.032Z,63.20
2023-03-24T04:50:49.334Z,63.48
2023-03-24T04:53:19.425Z,63.60
2023-03-24T04:56:28.034Z,64.16
2023-03-24T04:59:23.860Z,64.45
2023-03-24T05:01:50.976Z,64.42
2023-03-24T05:04:26.607Z,63.40
2023-03-24T05:06:56.324Z,64.06
2023-03-24T05:09:26.284Z,63.45
2023-03-24T05:11:53.115Z,63.97
2023-03-24T05:14:21.935Z,63.90
2023-03-24T05:16:49.471Z,64.80
2023-03-24T05:19:19.029Z,65.98
2023-03-24T05:21:46.270Z,68.45
2023-03-24T05:24:14.807Z,70.65
2023-03-24T05:26:41.683Z,71.54
2023-03-24T05:29:14.316Z,72.32
2023-03-24T05:31:41.241Z,72.70
2023-03-24T05:34:14.977Z,73.47
2023-03-24T05:36:50.678Z,73.65
2023-03-24T05:39:22.300Z,73.19
2023-03-24T05:41:56.502Z,73.86
2023-03-24T05:44:23.760Z,74.37
2023-03-24T05:47:04.430Z,73.76
2023-03-24T05:49:31.477Z,74.02
2023-03-24T05:51:59.931Z,73.49
2023-03-24T05:54:28.271Z,73.56
2023-03-24T05:57:16.254Z,74.50
2023-03-24T06:00:20.132Z,75.18
2023-03-24T06:02:55.084Z,75.47
2023-03-24T06:05:44.536Z,75.68
2023-03-24T06:08:12.229Z,76.00
2023-03-24T06:10:40.842Z,77.03
2023-03-24T06:13:08.192Z,77.10
2023-03-24T06:15:36.866Z,78.21
2023-03-24T06:18:20.329Z,78.39
2023-03-24T06:20:47.504Z,80.28
2023-03-24T06:23:21.553Z,80.59
2023-03-24T06:26:13.307Z,80.22
2023-03-24T06:28:49.848Z,80.27
2023-03-24T06:31:18.231Z,80.29
2023-03-24T06:34:01.768Z,80.56
2023-03-24T06:36:54.619Z,80.53
2023-03-24T06:39:21.725Z,81.92
2023-03-24T06:41:53.032Z,82.77
2023-03-24T06:44:19.998Z,83.45
2023-03-24T06:46:46.946Z,83.71
2023-03-24T06:49:14.275Z,84.06
2023-03-24T06:51:41.498Z,83.73
2023-03-24T06:54:09.236Z,83.73
2023-03-24T06:56:36.179Z,84.03
2023-03-24T06:59:05.228Z,83.85
2023-03-24T07:01:33.782Z,83.64
2023-03-24T07:04:27.030Z,83.67
2023-03-24T07:07:14.753Z,83.54
2023-03-24T07:09:47.938Z,83.27
2023-03-24T07:12:15.045Z,83.87
2023-03-24T07:14:44.141Z,83.91
2023-03-24T07:17:12.051Z,83.33
2023-03-24T07:19:45.100Z,82.71
2023-03-24T07:22:35.696Z,82.86
2023-03-24T07:25:36.356Z,82.76
2023-03-24T07:28:29.633Z,83.30
2023-03-24T07:31:03.889Z,83.11
2023-03-24T07:33:32.467Z,83.09
2023-03-24T07:36:00.751Z,83.15
2023-03-24T07:38:28.099Z,81.55
2023-03-24T07:41:02.628Z,81.52
2023-03-24T07:43:32.453Z,82.82
2023-03-24T07:46:08.450Z,82.80
2023-03-24T07:48:35.971Z,82.40
2023-03-24T07:51:03.720Z,82.83
2023-03-24T07:53:53.126Z,83.32
2023-03-24T07:56:28.080Z,82.93
2023-03-24T07:59:00.674Z,83.26
2023-03-24T08:01:40.585Z,83.42
2023-03-24T08:04:13.508Z,84.27
2023-03-24T08:06:57.889Z,85.12
2023-03-24T08:09:25.171Z,85.50
2023-03-24T08:11:51.986Z,85.75
2023-03-24T08:14:18.827Z,85.71
2023-03-24T08:16:47.324Z,86.73
2023-03-24T08:23:16.836Z,85.94
2023-03-24T08:25:44.049Z,86.00
2023-03-24T08:28:11.008Z,86.04
2023-03-24T08:30:37.807Z,85.39
2023-03-24T08:33:06.455Z,85.16
2023-03-24T08:35:35.616Z,85.39
2023-03-24T08:38:06.629Z,84.61
2023-03-24T08:40:36.000Z,84.78
2023-03-24T08:43:06.347Z,84.52
2023-03-24T08:45:33.189Z,83.76
2023-03-24T08:48:03.564Z,84.80
2023-03-24T08:50:38.696Z,84.38
2023-03-24T08:53:06.670Z,84.65
2023-03-24T08:55:34.131Z,84.94
2023-03-24T08:58:01.393Z,84.74
2023-03-24T09:00:29.134Z,84.80
2023-03-24T09:02:56.736Z,84.81
2023-03-24T09:05:33.293Z,84.37
2023-03-24T09:08:10.380Z,84.43
2023-03-24T09:10:38.493Z,84.06
2023-03-24T09:13:06.679Z,83.29
2023-03-24T09:15:33.974Z,83.29
2023-03-24T09:18:01.661Z,83.57
2023-03-24T09:20:29.653Z,83.82
2023-03-24T09:22:56.705Z,83.21
2023-03-24T09:25:24.938Z,82.20
2023-03-24T09:27:51.801Z,82.57
2023-03-24T09:30:19.021Z,81.70
2023-03-24T09:32:46.128Z,81.28
2023-03-24T09:35:13.776Z,81.29
2023-03-24T09:37:41.787Z,81.97
2023-03-24T09:40:21.622Z,81.73
2023-03-24T09:42:57.766Z,80.84
2023-03-24T09:45:29.463Z,79.19
2023-03-24T09:48:02.416Z,79.10
2023-03-24T09:50:38.330Z,79.04
2023-03-24T09:53:20.146Z,78.79
2023-03-24T09:55:49.602Z,79.00
2023-03-24T09:58:20.811Z,79.09
2023-03-24T10:00:47.962Z,77.76
2023-03-24T10:03:21.163Z,77.89
2023-03-24T10:05:54.030Z,76.89
2023-03-24T10:08:34.545Z,75.44
2023-03-24T10:11:10.502Z,75.29
2023-03-24T10:14:02.564Z,74.96
2023-03-24T10:16:41.640Z,74.97
2023-03-24T10:19:27.990Z,74.75
2023-03-24T10:22:06.300Z,74.45
2023-03-24T10:24:45.089Z,72.99
2023-03-24T10:27:25.930Z,73.01
2023-03-24T10:30:03.591Z,73.87
2023-03-24T10:32:35.620Z,73.31
2023-03-24T10:35:07.041Z,72.94
2023-03-24T10:37:34.068Z,72.62
2023-03-24T10:40:01.363Z,71.64
2023-03-24T10:42:34.084Z,71.14
2023-03-24T10:45:03.428Z,71.41
2023-03-24T10:47:33.943Z,71.52
2023-03-24T10:50:12.495Z,70.75
2023-03-24T10:52:46.805Z,70.44
2023-03-24T10:55:17.840Z,70.13
2023-03-24T10:57:48.019Z,70.23
2023-03-24T11:00:24.367Z,70.37
2023-03-24T11:02:59.975Z,70.65
2023-03-24T11:05:31.841Z,69.84
2023-03-24T11:08:22.736Z,70.71
2023-03-24T11:10:50.421Z,70.38
2023-03-24T11:13:20.290Z,69.54
2023-03-24T11:16:11.697Z,68.37
2023-03-24T11:18:54.088Z,67.45
2023-03-24T11:21:21.109Z,66.70
2023-03-24T11:23:50.402Z,65.48
2023-03-24T11:26:22.394Z,64.43
2023-03-24T11:28:53.661Z,63.24
2023-03-24T11:31:27.658Z,62.02
2023-03-24T11:34:00.333Z,60.27
2023-03-24T11:36:56.416Z,58.90
2023-03-24T11:39:26.477Z,59.26
2023-03-24T11:42:03.767Z,57.89
2023-03-24T11:44:44.100Z,57.92
2023-03-24T11:47:20.890Z,57.54
2023-03-24T11:50:01.121Z,58.28
2023-03-24T11:52:34.829Z,57.75
2023-03-24T11:55:29.484Z,57.79
2023-03-24T11:58:02.217Z,56.95
2023-03-24T12:00:37.117Z,56.81
2023-03-24T12:03:58.813Z,57.51
2023-03-24T12:06:41.783Z,57.41
2023-03-24T12:09:22.007Z,58.75
2023-03-24T12:12:22.734Z,62.02
2023-03-24T12:15:28.789Z,62.67
2023-03-24T12:18:23.909Z,62.49
2023-03-24T12:21:02.237Z,60.62
2023-03-24T12:23:45.163Z,61.13
2023-03-24T12:26:23.684Z,61.58
2023-03-24T12:29:16.126Z,62.06
2023-03-24T12:32:19.358Z,61.90
2023-03-24T12:35:28.822Z,61.46
2023-03-24T12:38:18.255Z,62.06
2023-03-24T12:41:13.232Z,60.65
2023-03-24T12:43:57.735Z,60.49
2023-03-24T12:46:47.786Z,60.98
2023-03-24T12:49:41.398Z,65.04
2023-03-24T12:52:38.471Z,69.42
2023-03-24T12:55:12.022Z,70.93
2023-03-24T12:57:48.866Z,72.16
2023-03-24T13:00:24.597Z,71.72
2023-03-24T13:02:58.962Z,70.63
2023-03-24T13:05:31.854Z,70.33
2023-03-24T13:08:03.767Z,70.00
2023-03-24T13:10:36.614Z,70.05
2023-03-24T13:13:18.255Z,70.93
2023-03-24T13:15:50.907Z,70.97
2023-03-24T13:18:32.846Z,70.81
2023-03-24T13:21:06.488Z,70.78
2023-03-24T13:23:51.835Z,71.28
2023-03-24T13:26:37.647Z,70.78
2023-03-24T13:29:20.802Z,70.90
2023-03-24T13:31:59.709Z,71.15
2023-03-24T13:34:34.773Z,71.32
2023-03-24T13:37:10.825Z,71.21
2023-03-24T13:39:39.364Z,71.79
2023-03-24T13:42:06.611Z,72.07
2023-03-24T13:44:41.969Z,72.26
2023-03-24T13:47:14.823Z,72.88
2023-03-24T13:49:55.701Z,73.31
2023-03-24T13:52:32.861Z,72.37
2023-03-24T13:55:07.949Z,72.14
2023-03-24T13:57:41.842Z,71.20
2023-03-24T14:00:22.678Z,70.23
2023-03-24T14:02:50.906Z,71.81
2023-03-24T14:05:40.430Z,71.51
2023-03-24T14:08:16.989Z,71.08
2023-03-24T14:10:49.583Z,70.79
2023-03-24T14:13:34.918Z,70.12
2023-03-24T14:16:41.034Z,69.35
2023-03-24T14:19:19.434Z,69.64
2023-03-24T14:21:54.780Z,69.52
2023-03-24T14:24:26.928Z,68.98
2023-03-24T14:26:54.123Z,68.39
2023-03-24T14:29:40.079Z,69.54
2023-03-24T14:32:20.545Z,69.22
2023-03-24T14:34:55.292Z,68.98
2023-03-24T14:37:24.581Z,69.28
2023-03-24T14:40:03.978Z,70.96
2023-03-24T14:43:22.655Z,71.10
2023-03-24T14:46:01.598Z,71.20
2023-03-24T14:48:37.811Z,73.40
2023-03-24T14:51:24.209Z,72.66
2023-03-24T14:53:57.371Z,72.94
2023-03-24T14:56:32.056Z,72.22
2023-03-24T14:59:08.219Z,72.15
2023-03-24T15:01:36.221Z,72.04
2023-03-24T15:04:40.069Z,74.45
2023-03-24T15:07:18.398Z,75.33
2023-03-24T15:09:50.985Z,75.07
2023-03-24T15:12:21.942Z,73.62
2023-03-24T15:14:51.449Z,74.90
2023-03-24T15:17:26.448Z,75.27
2023-03-24T15:19:55.233Z,75.02
2023-03-24T15:22:22.526Z,74.80
2023-03-24T15:24:51.273Z,74.46
2023-03-24T15:27:25.154Z,74.06
2023-03-24T15:29:59.345Z,73.74
2023-03-24T15:32:29.025Z,73.81
2023-03-24T15:35:00.571Z,74.71
2023-03-24T15:37:34.220Z,73.28
2023-03-24T15:40:15.398Z,73.30
2023-03-24T15:42:45.137Z,73.13
2023-03-24T15:45:23.986Z,73.23
2023-03-24T15:47:53.813Z,72.55
2023-03-24T15:50:35.788Z,72.69
2023-03-24T15:53:06.100Z,71.85
2023-03-24T15:55:36.028Z,71.98
2023-03-24T15:58:24.390Z,71.20
2023-03-24T16:00:55.040Z,68.93
2023-03-24T16:03:24.316Z,68.24
2023-03-24T16:05:54.985Z,68.08
2023-03-24T16:08:29.523Z,67.76
2023-03-24T16:10:59.767Z,67.88
2023-03-24T16:13:28.231Z,67.28
2023-03-24T16:15:58.072Z,66.68
2023-03-24T16:18:30.552Z,67.00
2023-03-24T16:20:59.423Z,66.93
2023-03-24T16:23:28.116Z,67.42
2023-03-24T16:25:54.966Z,67.76
2023-03-24T16:28:22.934Z,68.05
2023-03-24T16:30:58.125Z,67.73
2023-03-24T16:33:25.033Z,67.96
2023-03-24T16:35:51.899Z,67.33
2023-03-24T16:38:20.392Z,66.67
2023-03-24T16:40:58.049Z,67.78
2023-03-24T16:43:24.971Z,68.31
2023-03-24T16:45:52.003Z,68.86
2023-03-24T16:48:18.913Z,68.09
2023-03-24T16:50:50.564Z,68.66
2023-03-24T16:53:19.505Z,68.60
2023-03-24T16:55:46.703Z,68.82
2023-03-24T16:58:16.803Z,68.51
2023-03-24T17:00:45.180Z,68.96
2023-03-24T17:03:12.894Z,68.68
2023-03-24T17:05:44.172Z,68.38
2023-03-24T17:08:11.001Z,68.58
2023-03-24T17:10:42.175Z,68.00
2023-03-24T17:13:16.996Z,68.06
2023-03-24T17:15:44.209Z,68.54
2023-03-24T17:18:11.189Z,68.21
2023-03-24T17:20:38.002Z,67.61
2023-03-24T17:23:06.188Z,67.26
2023-03-24T17:25:33.691Z,66.97
2023-03-24T17:28:03.144Z,67.65
2023-03-24T17:30:30.315Z,67.99
2023-03-24T17:32:57.282Z,67.71
2023-03-24T17:35:24.868Z,67.20
2023-03-24T17:37:51.810Z,67.95
2023-03-24T17:40:20.621Z,67.84
2023-03-24T17:42:47.753Z,67.92
2023-03-24T17:45:18.568Z,68.90
2023-03-24T17:47:46.377Z,69.15
2023-03-24T17:50:14.084Z,70.09
2023-03-24T17:52:46.345Z,71.64
2023-03-24T17:55:16.173Z,73.60
2023-03-24T17:57:44.409Z,75.00
2023-03-24T18:00:14.248Z,75.99
2023-03-24T18:02:43.711Z,76.06
2023-03-24T18:05:12.457Z,76.51
2023-03-24T18:07:40.533Z,77.54
2023-03-24T18:10:09.388Z,77.41
2023-03-24T18:12:36.183Z,77.68
2023-03-24T18:15:05.480Z,77.07
2023-03-24T18:17:32.378Z,76.22
2023-03-24T18:20:00.634Z,75.98
2023-03-24T18:22:27.965Z,75.78
2023-03-24T18:24:54.993Z,75.30
2023-03-24T18:27:21.825Z,73.42
2023-03-24T18:29:48.678Z,72.44
2023-03-24T18:32:15.848Z,72.30
2023-03-24T18:34:44.149Z,71.35
2023-03-24T18:37:12.833Z,70.74
2023-03-24T18:39:39.735Z,70.34
2023-03-24T18:42:07.212Z,70.40
2023-03-24T18:44:34.131Z,70.96
2023-03-24T18:47:01.259Z,71.14
2023-03-24T18:49:29.277Z,72.18
2023-03-24T18:51:56.013Z,73.42
2023-03-24T18:54:24.604Z,74.39
2023-03-24T18:56:51.549Z,74.86
2023-03-24T18:59:18.405Z,75.39
2023-03-24T19:01:45.509Z,75.69
2023-03-24T19:04:12.432Z,76.44
2023-03-24T19:06:39.576Z,77.02
2023-03-24T19:09:06.345Z,76.61
2023-03-24T19:11:34.717Z,76.74
2023-03-24T19:14:02.016Z,78.38
2023-03-24T19:16:29.157Z,78.64
2023-03-24T19:18:56.227Z,79.06
2023-03-24T19:21:25.357Z,78.05
2023-03-24T19:23:53.151Z,77.99
2023-03-24T19:26:20.348Z,78.13
2023-03-24T19:28:48.491Z,77.55
2023-03-24T19:31:18.612Z,77.32
2023-03-24T19:33:47.180Z,76.64
2023-03-24T19:36:15.780Z,76.55
2023-03-24T19:38:42.705Z,76.29
2023-03-24T19:41:13.644Z,76.06
2023-03-24T19:43:41.267Z,76.21
2023-03-24T19:46:09.525Z,76.24
2023-03-24T19:48:36.587Z,76.28
2023-03-24T19:51:04.386Z,75.97
2023-03-24T19:53:31.731Z,75.90
2023-03-24T19:55:59.618Z,75.00
2023-03-24T19:58:26.571Z,75.81
2023-03-24T20:00:53.631Z,75.18
2023-03-24T20:03:22.469Z,75.57
2023-03-24T20:05:50.043Z,75.19
2023-03-24T20:08:17.671Z,75.79
2023-03-24T20:10:44.680Z,75.85
2023-03-24T20:13:11.475Z,75.74
2023-03-24T20:15:38.301Z,75.13
2023-03-24T20:18:05.446Z,75.62
2023-03-24T20:20:33.802Z,74.77
2023-03-24T20:23:00.909Z,75.44
2023-03-24T20:25:27.970Z,75.42
2023-03-24T20:27:54.920Z,75.59
2023-03-24T20:30:22.476Z,76.09
2023-03-24T20:32:49.413Z,75.63
2023-03-24T20:35:16.664Z,75.45
2023-03-24T20:37:44.995Z,75.57
2023-03-24T20:40:13.469Z,75.29
2023-03-24T20:42:40.445Z,75.45
2023-03-24T20:45:10.312Z,75.18
2023-03-24T20:47:37.330Z,74.76
2023-03-24T20:50:05.849Z,74.89
2023-03-24T20:52:32.963Z,75.13
2023-03-24T20:55:01.706Z,74.84
2023-03-24T20:57:28.632Z,75.66
2023-03-24T20:59:55.408Z,75.35
2023-03-24T21:02:23.202Z,75.43
2023-03-24T21:04:50.126Z,74.43
2023-03-24T21:07:17.624Z,75.09
2023-03-24T21:09:44.459Z,75.40
2023-03-24T21:12:12.616Z,75.08
2023-03-24T21:14:39.407Z,75.47
2023-03-24T21:17:06.693Z,75.51
2023-03-24T21:19:34.259Z,75.40
2023-03-24T21:22:01.063Z,75.72
2023-03-24T21:24:28.169Z,76.39
2023-03-24T21:26:54.944Z,76.10
2023-03-24T21:29:23.274Z,75.47
2023-03-24T21:31:50.163Z,75.48
2023-03-24T21:34:17.310Z,75.24
2023-03-24T21:36:44.190Z,74.85
2023-03-24T21:39:11.020Z,75.38
2023-03-24T21:41:37.762Z,73.66
2023-03-24T21:44:06.071Z,73.79
2023-03-24T21:46:34.287Z,74.32
2023-03-24T21:49:01.416Z,73.89
2023-03-24T21:51:30.838Z,74.08
2023-03-24T21:53:57.703Z,73.56
2023-03-24T21:56:25.176Z,73.16
2023-03-24T21:58:53.494Z,73.23
2023-03-24T22:01:20.703Z,74.13
2023-03-24T22:03:49.286Z,73.49
2023-03-24T22:06:16.519Z,73.79
2023-03-24T22:08:44.365Z,73.81
2023-03-24T22:11:11.726Z,73.36
2023-03-24T22:13:39.394Z,72.92
2023-03-24T22:16:08.086Z,73.43
2023-03-24T22:18:35.324Z,74.17
2023-03-24T22:21:07.093Z,74.21
2023-03-24T22:23:37.585Z,74.82
2023-03-24T22:26:09.681Z,74.54
2023-03-24T22:28:38.176Z,74.66
2023-03-24T22:31:08.262Z,74.69
2023-03-24T22:33:35.999Z,74.01
2023-03-24T22:36:06.650Z,73.79
2023-03-24T22:38:34.018Z,73.69
2023-03-24T22:41:04.254Z,73.74
2023-03-24T22:43:32.255Z,73.96
2023-03-24T22:45:59.265Z,73.59
2023-03-24T22:48:26.012Z,73.39
2023-03-24T22:50:53.424Z,73.33
2023-03-24T22:53:21.553Z,73.48
2023-03-24T22:55:48.699Z,72.88
2023-03-24T22:58:16.079Z,73.26
2023-03-24T23:00:45.389Z,74.88
2023-03-24T23:03:12.511Z,77.53
2023-03-24T23:05:40.618Z,79.43
2023-03-24T23:08:08.482Z,81.45
2023-03-24T23:10:36.816Z,81.73
2023-03-24T23:13:04.004Z,83.35
2023-03-24T23:15:31.500Z,80.20
2023-03-24T23:17:58.570Z,79.61
2023-03-24T23:20:26.233Z,75.21
2023-03-24T23:22:53.119Z,76.06
2023-03-24T23:25:20.125Z,77.88
2023-03-24T23:27:48.519Z,77.93
2023-03-24T23:30:16.148Z,78.26
2023-03-24T23:32:43.449Z,78.59
2023-03-24T23:35:11.377Z,78.75
2023-03-24T23:37:39.031Z,78.35
2023-03-24T23:40:09.916Z,75.81
2023-03-24T23:42:37.257Z,75.59
2023-03-24T23:45:06.977Z,73.30
2023-03-24T23:47:35.235Z,74.63
2023-03-24T23:50:03.426Z,73.96
2023-03-24T23:52:30.328Z,74.43
2023-03-24T23:54:57.157Z,73.35
2023-03-24T23:57:24.569Z,74.74
2023-03-24T23:59:51.627Z,74.38
